sensor_id;sensor_type;location;lat;lon;timestamp;P1;durP1;ratioP1;P2;durP2;ratioP2
9972;SDS011;5027;53.560;10.062;2023-12-29T00:01:23;8.03;;;3.03;;
9972;SDS011;5027;53.560;10.062;2023-12-29T00:03:55;14.13;;;3.57;;
9972;SDS011;5027;53.560;10.062;2023-12-29T00:06:25;8.67;;;2.67;;
9972;SDS011;5027;53.560;10.062;2023-12-29T00:08:51;9.77;;;3.23;;
9972;SDS011;5027;53.560;10.062;2023-12-29T00:11:21;9.07;;;3.10;;
9972;SDS011;5027;53.560;10.062;2023-12-29T00:13:48;11.23;;;3.30;;
9972;SDS011;5027;53.560;10.062;2023-12-29T00:16:15;5.93;;;2.80;;
9972;SDS011;5027;53.560;10.062;2023-12-29T00:18:42;10.87;;;3.57;;
9972;SDS011;5027;53.560;10.062;2023-12-29T00:21:09;11.90;;;3.30;;
9972;SDS011;5027;53.560;10.062;2023-12-29T00:23:37;9.67;;;3.20;;
9972;SDS011;5027;53.560;10.062;2023-12-29T00:26:04;8.67;;;3.33;;
9972;SDS011;5027;53.560;10.062;2023-12-29T00:28:30;13.50;;;3.43;;
9972;SDS011;5027;53.560;10.062;2023-12-29T00:30:57;9.27;;;3.17;;
9972;SDS011;5027;53.560;10.062;2023-12-29T00:33:29;8.53;;;3.27;;
9972;SDS011;5027;53.560;10.062;2023-12-29T00:35:58;11.40;;;3.33;;
9972;SDS011;5027;53.560;10.062;2023-12-29T00:38:26;11.87;;;3.43;;
9972;SDS011;5027;53.560;10.062;2023-12-29T00:40:54;11.30;;;3.13;;
9972;SDS011;5027;53.560;10.062;2023-12-29T00:43:21;14.10;;;3.87;;
9972;SDS011;5027;53.560;10.062;2023-12-29T00:45:49;8.80;;;2.73;;
9972;SDS011;5027;53.560;10.062;2023-12-29T00:48:15;11.37;;;3.20;;
9972;SDS011;5027;53.560;10.062;2023-12-29T00:50:42;7.93;;;3.23;;
9972;SDS011;5027;53.560;10.062;2023-12-29T00:53:09;10.37;;;3.30;;
9972;SDS011;5027;53.560;10.062;2023-12-29T00:55:36;15.37;;;3.47;;
9972;SDS011;5027;53.560;10.062;2023-12-29T00:58:02;8.67;;;3.00;;
9972;SDS011;5027;53.560;10.062;2023-12-29T01:00:30;8.80;;;2.83;;
9972;SDS011;5027;53.560;10.062;2023-12-29T01:02:57;7.90;;;3.07;;
9972;SDS011;5027;53.560;10.062;2023-12-29T01:05:23;11.13;;;2.80;;
9972;SDS011;5027;53.560;10.062;2023-12-29T01:07:50;8.70;;;2.80;;
9972;SDS011;5027;53.560;10.062;2023-12-29T01:10:17;8.23;;;2.90;;
9972;SDS011;5027;53.560;10.062;2023-12-29T01:12:44;9.87;;;3.20;;
9972;SDS011;5027;53.560;10.062;2023-12-29T01:15:11;11.57;;;3.07;;
9972;SDS011;5027;53.560;10.062;2023-12-29T01:17:37;6.50;;;2.80;;
9972;SDS011;5027;53.560;10.062;2023-12-29T01:20:04;11.20;;;2.97;;
9972;SDS011;5027;53.560;10.062;2023-12-29T01:22:31;10.50;;;3.37;;
9972;SDS011;5027;53.560;10.062;2023-12-29T01:24:59;6.03;;;2.90;;
9972;SDS011;5027;53.560;10.062;2023-12-29T01:27:26;10.60;;;3.07;;
9972;SDS011;5027;53.560;10.062;2023-12-29T01:29:53;10.30;;;2.90;;
9972;SDS011;5027;53.560;10.062;2023-12-29T01:32:20;10.57;;;3.40;;
9972;SDS011;5027;53.560;10.062;2023-12-29T01:34:48;7.47;;;3.10;;
9972;SDS011;5027;53.560;10.062;2023-12-29T01:37:15;4.93;;;1.93;;
9972;SDS011;5027;53.560;10.062;2023-12-29T01:39:42;7.80;;;2.67;;
9972;SDS011;5027;53.560;10.062;2023-12-29T01:42:09;9.90;;;3.20;;
9972;SDS011;5027;53.560;10.062;2023-12-29T01:44:37;8.53;;;3.27;;
9972;SDS011;5027;53.560;10.062;2023-12-29T01:47:05;10.10;;;3.07;;
9972;SDS011;5027;53.560;10.062;2023-12-29T01:49:41;7.33;;;3.17;;
9972;SDS011;5027;53.560;10.062;2023-12-29T01:52:13;7.47;;;2.87;;
9972;SDS011;5027;53.560;10.062;2023-12-29T01:54:44;10.47;;;2.80;;
9972;SDS011;5027;53.560;10.062;2023-12-29T01:57:14;9.50;;;2.87;;
9972;SDS011;5027;53.560;10.062;2023-12-29T01:59:41;8.93;;;2.57;;
9972;SDS011;5027;53.560;10.062;2023-12-29T02:02:08;10.73;;;2.83;;
9972;SDS011;5027;53.560;10.062;2023-12-29T02:04:36;6.63;;;2.63;;
9972;SDS011;5027;53.560;10.062;2023-12-29T02:07:04;11.53;;;2.83;;
9972;SDS011;5027;53.560;10.062;2023-12-29T02:09:31;7.40;;;3.07;;
9972;SDS011;5027;53.560;10.062;2023-12-29T02:12:00;14.13;;;3.13;;
9972;SDS011;5027;53.560;10.062;2023-12-29T02:14:27;10.80;;;2.57;;
9972;SDS011;5027;53.560;10.062;2023-12-29T02:19:37;10.23;;;2.83;;
9972;SDS011;5027;53.560;10.062;2023-12-29T02:22:10;8.90;;;2.57;;
9972;SDS011;5027;53.560;10.062;2023-12-29T02:24:38;10.30;;;2.50;;
9972;SDS011;5027;53.560;10.062;2023-12-29T02:29:35;9.23;;;2.67;;
9972;SDS011;5027;53.560;10.062;2023-12-29T02:32:04;7.07;;;2.70;;
9972;SDS011;5027;53.560;10.062;2023-12-29T02:34:35;8.17;;;2.53;;
9972;SDS011;5027;53.560;10.062;2023-12-29T02:37:04;8.10;;;2.60;;
9972;SDS011;5027;53.560;10.062;2023-12-29T02:39:31;6.73;;;2.13;;
9972;SDS011;5027;53.560;10.062;2023-12-29T02:41:58;8.93;;;2.80;;
9972;SDS011;5027;53.560;10.062;2023-12-29T02:44:25;6.37;;;2.20;;
9972;SDS011;5027;53.560;10.062;2023-12-29T02:46:51;9.17;;;2.87;;
9972;SDS011;5027;53.560;10.062;2023-12-29T02:49:18;6.90;;;2.70;;
9972;SDS011;5027;53.560;10.062;2023-12-29T02:51:46;6.80;;;2.30;;
9972;SDS011;5027;53.560;10.062;2023-12-29T02:54:14;5.80;;;2.50;;
9972;SDS011;5027;53.560;10.062;2023-12-29T02:56:41;8.80;;;2.40;;
9972;SDS011;5027;53.560;10.062;2023-12-29T02:59:07;9.23;;;2.60;;
9972;SDS011;5027;53.560;10.062;2023-12-29T03:01:34;6.57;;;2.47;;
9972;SDS011;5027;53.560;10.062;2023-12-29T03:04:01;8.47;;;2.60;;
9972;SDS011;5027;53.560;10.062;2023-12-29T03:06:27;5.73;;;2.33;;
9972;SDS011;5027;53.560;10.062;2023-12-29T03:08:54;8.13;;;2.40;;
9972;SDS011;5027;53.560;10.062;2023-12-29T03:11:21;3.87;;;1.97;;
9972;SDS011;5027;53.560;10.062;2023-12-29T03:13:48;8.10;;;2.33;;
9972;SDS011;5027;53.560;10.062;2023-12-29T03:16:15;4.37;;;2.20;;
9972;SDS011;5027;53.560;10.062;2023-12-29T03:18:41;6.00;;;2.00;;
9972;SDS011;5027;53.560;10.062;2023-12-29T03:21:09;6.27;;;2.40;;
9972;SDS011;5027;53.560;10.062;2023-12-29T03:23:36;6.33;;;2.20;;
9972;SDS011;5027;53.560;10.062;2023-12-29T03:26:02;6.27;;;2.33;;
9972;SDS011;5027;53.560;10.062;2023-12-29T03:28:30;5.97;;;2.00;;
9972;SDS011;5027;53.560;10.062;2023-12-29T03:30:57;6.97;;;2.03;;
9972;SDS011;5027;53.560;10.062;2023-12-29T03:33:24;6.63;;;2.43;;
9972;SDS011;5027;53.560;10.062;2023-12-29T03:35:51;3.93;;;1.67;;
9972;SDS011;5027;53.560;10.062;2023-12-29T03:38:17;6.80;;;2.17;;
9972;SDS011;5027;53.560;10.062;2023-12-29T03:40:44;5.87;;;1.90;;
9972;SDS011;5027;53.560;10.062;2023-12-29T03:43:11;5.20;;;2.10;;
9972;SDS011;5027;53.560;10.062;2023-12-29T03:45:38;5.07;;;1.73;;
9972;SDS011;5027;53.560;10.062;2023-12-29T03:48:06;6.77;;;1.90;;
9972;SDS011;5027;53.560;10.062;2023-12-29T03:50:35;7.10;;;2.20;;
9972;SDS011;5027;53.560;10.062;2023-12-29T03:53:02;7.10;;;2.10;;
9972;SDS011;5027;53.560;10.062;2023-12-29T03:55:29;5.90;;;2.20;;
9972;SDS011;5027;53.560;10.062;2023-12-29T03:57:55;8.87;;;2.30;;
9972;SDS011;5027;53.560;10.062;2023-12-29T04:00:23;4.73;;;1.67;;
9972;SDS011;5027;53.560;10.062;2023-12-29T04:02:50;6.27;;;2.00;;
9972;SDS011;5027;53.560;10.062;2023-12-29T04:05:17;3.53;;;1.60;;
9972;SDS011;5027;53.560;10.062;2023-12-29T04:07:44;5.07;;;2.00;;
9972;SDS011;5027;53.560;10.062;2023-12-29T04:10:11;4.87;;;1.93;;
9972;SDS011;5027;53.560;10.062;2023-12-29T04:12:37;7.37;;;2.00;;
9972;SDS011;5027;53.560;10.062;2023-12-29T04:15:04;4.90;;;2.20;;
9972;SDS011;5027;53.560;10.062;2023-12-29T04:17:31;5.63;;;1.80;;
9972;SDS011;5027;53.560;10.062;2023-12-29T04:19:58;4.97;;;1.70;;
9972;SDS011;5027;53.560;10.062;2023-12-29T04:22:26;5.83;;;1.50;;
9972;SDS011;5027;53.560;10.062;2023-12-29T04:24:52;4.17;;;1.50;;
9972;SDS011;5027;53.560;10.062;2023-12-29T04:27:19;3.87;;;1.47;;
9972;SDS011;5027;53.560;10.062;2023-12-29T04:29:47;3.03;;;1.30;;
9972;SDS011;5027;53.560;10.062;2023-12-29T04:32:15;3.93;;;1.50;;
9972;SDS011;5027;53.560;10.062;2023-12-29T04:34:42;4.80;;;1.70;;
9972;SDS011;5027;53.560;10.062;2023-12-29T04:37:10;3.40;;;1.30;;
9972;SDS011;5027;53.560;10.062;2023-12-29T04:39:38;2.10;;;1.13;;
9972;SDS011;5027;53.560;10.062;2023-12-29T04:42:05;3.27;;;1.60;;
9972;SDS011;5027;53.560;10.062;2023-12-29T04:44:33;2.87;;;1.40;;
9972;SDS011;5027;53.560;10.062;2023-12-29T04:47:00;3.83;;;1.40;;
9972;SDS011;5027;53.560;10.062;2023-12-29T04:49:26;2.30;;;1.23;;
9972;SDS011;5027;53.560;10.062;2023-12-29T04:51:53;3.77;;;1.67;;
9972;SDS011;5027;53.560;10.062;2023-12-29T04:54:20;3.70;;;1.20;;
9972;SDS011;5027;53.560;10.062;2023-12-29T04:56:46;5.30;;;1.70;;
9972;SDS011;5027;53.560;10.062;2023-12-29T04:59:13;5.07;;;1.60;;
9972;SDS011;5027;53.560;10.062;2023-12-29T05:01:40;5.13;;;1.70;;
9972;SDS011;5027;53.560;10.062;2023-12-29T05:04:06;2.97;;;1.47;;
9972;SDS011;5027;53.560;10.062;2023-12-29T05:06:33;6.10;;;1.63;;
9972;SDS011;5027;53.560;10.062;2023-12-29T05:09:00;4.80;;;1.80;;
9972;SDS011;5027;53.560;10.062;2023-12-29T05:11:27;5.83;;;1.93;;
9972;SDS011;5027;53.560;10.062;2023-12-29T05:13:54;4.83;;;1.70;;
9972;SDS011;5027;53.560;10.062;2023-12-29T05:16:20;7.30;;;2.20;;
9972;SDS011;5027;53.560;10.062;2023-12-29T05:18:47;7.70;;;2.03;;
9972;SDS011;5027;53.560;10.062;2023-12-29T05:21:15;5.67;;;2.07;;
9972;SDS011;5027;53.560;10.062;2023-12-29T05:23:43;9.63;;;2.20;;
9972;SDS011;5027;53.560;10.062;2023-12-29T05:26:14;6.33;;;2.10;;
9972;SDS011;5027;53.560;10.062;2023-12-29T05:28:41;4.60;;;1.50;;
9972;SDS011;5027;53.560;10.062;2023-12-29T05:31:08;4.03;;;1.67;;
9972;SDS011;5027;53.560;10.062;2023-12-29T05:33:35;3.73;;;1.60;;
9972;SDS011;5027;53.560;10.062;2023-12-29T05:36:05;6.87;;;2.00;;
9972;SDS011;5027;53.560;10.062;2023-12-29T05:38:34;4.33;;;1.70;;
9972;SDS011;5027;53.560;10.062;2023-12-29T05:41:02;2.93;;;1.40;;
9972;SDS011;5027;53.560;10.062;2023-12-29T05:43:31;8.13;;;1.77;;
9972;SDS011;5027;53.560;10.062;2023-12-29T05:45:58;5.10;;;1.63;;
9972;SDS011;5027;53.560;10.062;2023-12-29T05:48:26;4.47;;;1.60;;
9972;SDS011;5027;53.560;10.062;2023-12-29T05:50:53;3.57;;;1.40;;
9972;SDS011;5027;53.560;10.062;2023-12-29T05:53:19;5.77;;;1.70;;
9972;SDS011;5027;53.560;10.062;2023-12-29T05:55:46;5.40;;;1.87;;
9972;SDS011;5027;53.560;10.062;2023-12-29T05:58:13;5.17;;;1.67;;
9972;SDS011;5027;53.560;10.062;2023-12-29T06:00:40;4.43;;;1.60;;
9972;SDS011;5027;53.560;10.062;2023-12-29T06:03:07;7.80;;;1.67;;
9972;SDS011;5027;53.560;10.062;2023-12-29T06:05:34;4.77;;;1.73;;
9972;SDS011;5027;53.560;10.062;2023-12-29T06:08:00;7.50;;;2.00;;
9972;SDS011;5027;53.560;10.062;2023-12-29T06:10:28;3.63;;;1.70;;
9972;SDS011;5027;53.560;10.062;2023-12-29T06:12:54;7.23;;;1.90;;
9972;SDS011;5027;53.560;10.062;2023-12-29T06:15:21;6.67;;;2.03;;
9972;SDS011;5027;53.560;10.062;2023-12-29T06:17:48;5.10;;;1.93;;
9972;SDS011;5027;53.560;10.062;2023-12-29T06:20:15;7.60;;;2.20;;
9972;SDS011;5027;53.560;10.062;2023-12-29T06:22:41;4.73;;;1.73;;
9972;SDS011;5027;53.560;10.062;2023-12-29T06:25:09;6.40;;;2.17;;
9972;SDS011;5027;53.560;10.062;2023-12-29T06:27:37;6.30;;;1.77;;
9972;SDS011;5027;53.560;10.062;2023-12-29T06:30:05;7.47;;;2.10;;
9972;SDS011;5027;53.560;10.062;2023-12-29T06:32:33;9.03;;;2.17;;
9972;SDS011;5027;53.560;10.062;2023-12-29T06:35:00;5.70;;;2.10;;
9972;SDS011;5027;53.560;10.062;2023-12-29T06:37:27;5.77;;;2.20;;
9972;SDS011;5027;53.560;10.062;2023-12-29T06:39:53;5.67;;;2.23;;
9972;SDS011;5027;53.560;10.062;2023-12-29T06:42:20;6.83;;;2.10;;
9972;SDS011;5027;53.560;10.062;2023-12-29T06:44:47;6.80;;;2.30;;
9972;SDS011;5027;53.560;10.062;2023-12-29T06:47:14;8.17;;;2.97;;
9972;SDS011;5027;53.560;10.062;2023-12-29T06:49:40;6.73;;;2.33;;
9972;SDS011;5027;53.560;10.062;2023-12-29T06:52:07;7.83;;;2.57;;
9972;SDS011;5027;53.560;10.062;2023-12-29T06:54:34;7.77;;;2.40;;
9972;SDS011;5027;53.560;10.062;2023-12-29T06:57:02;9.53;;;3.07;;
9972;SDS011;5027;53.560;10.062;2023-12-29T06:59:29;10.13;;;2.47;;
9972;SDS011;5027;53.560;10.062;2023-12-29T07:01:55;8.07;;;2.67;;
9972;SDS011;5027;53.560;10.062;2023-12-29T07:04:22;9.93;;;3.30;;
9972;SDS011;5027;53.560;10.062;2023-12-29T07:06:49;12.70;;;3.80;;
9972;SDS011;5027;53.560;10.062;2023-12-29T07:09:16;12.50;;;3.17;;
9972;SDS011;5027;53.560;10.062;2023-12-29T07:11:47;10.57;;;3.13;;
9972;SDS011;5027;53.560;10.062;2023-12-29T07:14:14;8.60;;;3.10;;
9972;SDS011;5027;53.560;10.062;2023-12-29T07:16:41;12.63;;;2.83;;
9972;SDS011;5027;53.560;10.062;2023-12-29T07:19:08;11.77;;;3.43;;
9972;SDS011;5027;53.560;10.062;2023-12-29T07:21:35;13.30;;;3.20;;
9972;SDS011;5027;53.560;10.062;2023-12-29T07:24:02;13.57;;;3.30;;
9972;SDS011;5027;53.560;10.062;2023-12-29T07:26:29;14.13;;;3.60;;
9972;SDS011;5027;53.560;10.062;2023-12-29T07:28:56;11.83;;;3.40;;
9972;SDS011;5027;53.560;10.062;2023-12-29T07:31:23;11.70;;;3.80;;
9972;SDS011;5027;53.560;10.062;2023-12-29T07:33:50;12.27;;;3.77;;
9972;SDS011;5027;53.560;10.062;2023-12-29T07:36:17;13.90;;;3.23;;
9972;SDS011;5027;53.560;10.062;2023-12-29T07:38:44;12.27;;;3.50;;
9972;SDS011;5027;53.560;10.062;2023-12-29T07:41:11;12.83;;;3.50;;
9972;SDS011;5027;53.560;10.062;2023-12-29T07:43:38;15.23;;;4.30;;
9972;SDS011;5027;53.560;10.062;2023-12-29T07:46:04;13.80;;;4.37;;
9972;SDS011;5027;53.560;10.062;2023-12-29T07:48:31;12.67;;;3.80;;
9972;SDS011;5027;53.560;10.062;2023-12-29T07:50:58;13.43;;;4.03;;
9972;SDS011;5027;53.560;10.062;2023-12-29T07:53:31;13.37;;;3.23;;
9972;SDS011;5027;53.560;10.062;2023-12-29T07:55:58;14.03;;;3.90;;
9972;SDS011;5027;53.560;10.062;2023-12-29T07:58:24;16.77;;;4.20;;
9972;SDS011;5027;53.560;10.062;2023-12-29T08:00:51;17.00;;;4.10;;
9972;SDS011;5027;53.560;10.062;2023-12-29T08:03:18;15.03;;;3.87;;
9972;SDS011;5027;53.560;10.062;2023-12-29T08:05:45;12.87;;;3.93;;
9972;SDS011;5027;53.560;10.062;2023-12-29T08:08:12;13.63;;;3.40;;
9972;SDS011;5027;53.560;10.062;2023-12-29T08:10:39;7.83;;;3.00;;
9972;SDS011;5027;53.560;10.062;2023-12-29T08:13:06;17.47;;;3.67;;
9972;SDS011;5027;53.560;10.062;2023-12-29T08:15:35;12.93;;;3.70;;
9972;SDS011;5027;53.560;10.062;2023-12-29T08:18:03;15.30;;;4.13;;
9972;SDS011;5027;53.560;10.062;2023-12-29T08:20:31;18.10;;;4.47;;
9972;SDS011;5027;53.560;10.062;2023-12-29T08:22:58;15.87;;;3.70;;
9972;SDS011;5027;53.560;10.062;2023-12-29T08:25:24;16.07;;;4.20;;
9972;SDS011;5027;53.560;10.062;2023-12-29T08:27:51;13.27;;;3.93;;
9972;SDS011;5027;53.560;10.062;2023-12-29T08:30:18;13.90;;;4.27;;
9972;SDS011;5027;53.560;10.062;2023-12-29T08:32:45;14.53;;;4.10;;
9972;SDS011;5027;53.560;10.062;2023-12-29T08:35:12;16.77;;;4.20;;
9972;SDS011;5027;53.560;10.062;2023-12-29T08:37:39;18.87;;;4.63;;
9972;SDS011;5027;53.560;10.062;2023-12-29T08:40:05;14.30;;;4.03;;
9972;SDS011;5027;53.560;10.062;2023-12-29T08:42:33;14.37;;;4.30;;
9972;SDS011;5027;53.560;10.062;2023-12-29T08:45:00;14.00;;;4.43;;
9972;SDS011;5027;53.560;10.062;2023-12-29T08:47:28;14.33;;;4.23;;
9972;SDS011;5027;53.560;10.062;2023-12-29T08:49:55;12.30;;;3.83;;
9972;SDS011;5027;53.560;10.062;2023-12-29T08:52:22;18.13;;;4.30;;
9972;SDS011;5027;53.560;10.062;2023-12-29T08:54:48;13.37;;;4.10;;
9972;SDS011;5027;53.560;10.062;2023-12-29T08:57:15;20.23;;;4.60;;
9972;SDS011;5027;53.560;10.062;2023-12-29T08:59:42;12.87;;;4.30;;
9972;SDS011;5027;53.560;10.062;2023-12-29T09:02:08;16.70;;;4.37;;
9972;SDS011;5027;53.560;10.062;2023-12-29T09:04:35;14.73;;;4.17;;
9972;SDS011;5027;53.560;10.062;2023-12-29T09:07:02;11.40;;;3.70;;
9972;SDS011;5027;53.560;10.062;2023-12-29T09:09:30;10.87;;;3.57;;
9972;SDS011;5027;53.560;10.062;2023-12-29T09:11:57;16.70;;;3.80;;
9972;SDS011;5027;53.560;10.062;2023-12-29T09:14:24;7.73;;;2.97;;
9972;SDS011;5027;53.560;10.062;2023-12-29T09:16:50;8.27;;;2.83;;
9972;SDS011;5027;53.560;10.062;2023-12-29T09:19:17;4.33;;;1.90;;
9972;SDS011;5027;53.560;10.062;2023-12-29T09:21:56;7.80;;;2.40;;
9972;SDS011;5027;53.560;10.062;2023-12-29T09:24:23;8.67;;;2.67;;
9972;SDS011;5027;53.560;10.062;2023-12-29T09:26:50;5.10;;;2.10;;
9972;SDS011;5027;53.560;10.062;2023-12-29T09:29:18;4.40;;;2.07;;
9972;SDS011;5027;53.560;10.062;2023-12-29T09:31:45;6.37;;;1.43;;
9972;SDS011;5027;53.560;10.062;2023-12-29T09:34:12;3.77;;;1.80;;
9972;SDS011;5027;53.560;10.062;2023-12-29T09:36:38;4.57;;;1.43;;
9972;SDS011;5027;53.560;10.062;2023-12-29T09:39:05;6.63;;;1.80;;
9972;SDS011;5027;53.560;10.062;2023-12-29T09:41:32;4.13;;;2.17;;
9972;SDS011;5027;53.560;10.062;2023-12-29T09:44:02;3.83;;;1.80;;
9972;SDS011;5027;53.560;10.062;2023-12-29T09:46:34;6.57;;;2.03;;
9972;SDS011;5027;53.560;10.062;2023-12-29T09:49:02;7.40;;;2.00;;
9972;SDS011;5027;53.560;10.062;2023-12-29T09:51:31;5.43;;;2.10;;
9972;SDS011;5027;53.560;10.062;2023-12-29T09:53:58;7.37;;;2.50;;
9972;SDS011;5027;53.560;10.062;2023-12-29T09:56:26;7.87;;;2.17;;
9972;SDS011;5027;53.560;10.062;2023-12-29T09:58:53;11.43;;;3.07;;
9972;SDS011;5027;53.560;10.062;2023-12-29T10:01:21;9.27;;;2.97;;
9972;SDS011;5027;53.560;10.062;2023-12-29T10:03:49;10.13;;;3.37;;
9972;SDS011;5027;53.560;10.062;2023-12-29T10:06:18;10.40;;;2.90;;
9972;SDS011;5027;53.560;10.062;2023-12-29T10:08:49;13.30;;;4.17;;
9972;SDS011;5027;53.560;10.062;2023-12-29T10:11:18;12.97;;;3.50;;
9972;SDS011;5027;53.560;10.062;2023-12-29T10:13:48;14.87;;;3.80;;
9972;SDS011;5027;53.560;10.062;2023-12-29T10:16:32;12.87;;;3.73;;
9972;SDS011;5027;53.560;10.062;2023-12-29T10:19:08;17.93;;;3.93;;
9972;SDS011;5027;53.560;10.062;2023-12-29T10:21:39;11.10;;;3.40;;
9972;SDS011;5027;53.560;10.062;2023-12-29T10:24:14;16.57;;;4.37;;
9972;SDS011;5027;53.560;10.062;2023-12-29T10:26:47;14.50;;;4.57;;
9972;SDS011;5027;53.560;10.062;2023-12-29T10:29:13;13.23;;;3.47;;
9972;SDS011;5027;53.560;10.062;2023-12-29T10:31:43;13.37;;;3.37;;
9972;SDS011;5027;53.560;10.062;2023-12-29T10:34:17;17.67;;;4.37;;
9972;SDS011;5027;53.560;10.062;2023-12-29T10:36:58;14.50;;;3.87;;
9972;SDS011;5027;53.560;10.062;2023-12-29T10:39:25;16.33;;;3.87;;
9972;SDS011;5027;53.560;10.062;2023-12-29T10:42:02;12.97;;;3.73;;
9972;SDS011;5027;53.560;10.062;2023-12-29T10:44:32;16.47;;;4.60;;
9972;SDS011;5027;53.560;10.062;2023-12-29T10:47:09;12.53;;;3.93;;
9972;SDS011;5027;53.560;10.062;2023-12-29T10:49:39;12.70;;;3.63;;
9972;SDS011;5027;53.560;10.062;2023-12-29T10:52:11;13.13;;;3.90;;
9972;SDS011;5027;53.560;10.062;2023-12-29T10:54:39;7.77;;;3.30;;
9972;SDS011;5027;53.560;10.062;2023-12-29T10:57:07;12.20;;;4.00;;
9972;SDS011;5027;53.560;10.062;2023-12-29T10:59:36;10.13;;;3.03;;
9972;SDS011;5027;53.560;10.062;2023-12-29T11:02:02;10.37;;;3.67;;
9972;SDS011;5027;53.560;10.062;2023-12-29T11:04:32;11.07;;;3.10;;
9972;SDS011;5027;53.560;10.062;2023-12-29T11:06:59;12.47;;;3.50;;
9972;SDS011;5027;53.560;10.062;2023-12-29T11:09:29;9.00;;;3.20;;
9972;SDS011;5027;53.560;10.062;2023-12-29T11:11:58;11.70;;;3.33;;
9972;SDS011;5027;53.560;10.062;2023-12-29T11:14:26;5.70;;;2.47;;
9972;SDS011;5027;53.560;10.062;2023-12-29T11:16:55;10.40;;;3.37;;
9972;SDS011;5027;53.560;10.062;2023-12-29T11:19:23;12.50;;;3.00;;
9972;SDS011;5027;53.560;10.062;2023-12-29T11:21:54;11.07;;;3.13;;
9972;SDS011;5027;53.560;10.062;2023-12-29T11:24:22;8.83;;;3.03;;
9972;SDS011;5027;53.560;10.062;2023-12-29T11:27:03;10.90;;;3.07;;
9972;SDS011;5027;53.560;10.062;2023-12-29T11:29:33;14.30;;;3.50;;
9972;SDS011;5027;53.560;10.062;2023-12-29T11:32:01;6.37;;;2.53;;
9972;SDS011;5027;53.560;10.062;2023-12-29T11:34:37;12.13;;;3.30;;
9972;SDS011;5027;53.560;10.062;2023-12-29T11:37:18;7.70;;;3.07;;
9972;SDS011;5027;53.560;10.062;2023-12-29T11:43:14;9.90;;;2.80;;
9972;SDS011;5027;53.560;10.062;2023-12-29T11:45:43;10.23;;;2.83;;
9972;SDS011;5027;53.560;10.062;2023-12-29T11:48:11;14.03;;;3.60;;
9972;SDS011;5027;53.560;10.062;2023-12-29T11:50:38;7.70;;;2.60;;
9972;SDS011;5027;53.560;10.062;2023-12-29T11:53:08;7.07;;;2.53;;
9972;SDS011;5027;53.560;10.062;2023-12-29T11:55:36;8.70;;;2.40;;
9972;SDS011;5027;53.560;10.062;2023-12-29T11:58:04;8.40;;;3.10;;
9972;SDS011;5027;53.560;10.062;2023-12-29T12:00:49;6.57;;;2.30;;
9972;SDS011;5027;53.560;10.062;2023-12-29T12:05:44;8.00;;;2.57;;
9972;SDS011;5027;53.560;10.062;2023-12-29T12:08:19;7.67;;;2.70;;
9972;SDS011;5027;53.560;10.062;2023-12-29T12:11:46;8.10;;;2.90;;
9972;SDS011;5027;53.560;10.062;2023-12-29T12:13:57;10.83;;;3.33;;
9972;SDS011;5027;53.560;10.062;2023-12-29T12:19:11;9.03;;;3.17;;
9972;SDS011;5027;53.560;10.062;2023-12-29T12:21:40;9.50;;;2.77;;
9972;SDS011;5027;53.560;10.062;2023-12-29T12:24:07;9.63;;;3.00;;
9972;SDS011;5027;53.560;10.062;2023-12-29T12:26:34;11.70;;;3.30;;
9972;SDS011;5027;53.560;10.062;2023-12-29T12:29:01;5.73;;;2.47;;
9972;SDS011;5027;53.560;10.062;2023-12-29T12:31:28;10.07;;;3.60;;
9972;SDS011;5027;53.560;10.062;2023-12-29T12:33:55;8.97;;;2.67;;
9972;SDS011;5027;53.560;10.062;2023-12-29T12:36:23;9.50;;;2.67;;
9972;SDS011;5027;53.560;10.062;2023-12-29T12:38:51;8.73;;;3.23;;
9972;SDS011;5027;53.560;10.062;2023-12-29T12:41:20;9.60;;;2.87;;
9972;SDS011;5027;53.560;10.062;2023-12-29T12:43:53;8.40;;;2.83;;
9972;SDS011;5027;53.560;10.062;2023-12-29T12:46:34;11.00;;;2.93;;
9972;SDS011;5027;53.560;10.062;2023-12-29T12:49:05;7.87;;;2.57;;
9972;SDS011;5027;53.560;10.062;2023-12-29T12:51:32;7.63;;;2.80;;
9972;SDS011;5027;53.560;10.062;2023-12-29T12:54:00;4.93;;;2.40;;
9972;SDS011;5027;53.560;10.062;2023-12-29T12:56:28;6.97;;;2.73;;
9972;SDS011;5027;53.560;10.062;2023-12-29T12:58:56;6.90;;;2.37;;
9972;SDS011;5027;53.560;10.062;2023-12-29T13:01:24;5.93;;;2.60;;
9972;SDS011;5027;53.560;10.062;2023-12-29T13:03:52;8.27;;;2.33;;
9972;SDS011;5027;53.560;10.062;2023-12-29T13:06:19;8.03;;;2.50;;
9972;SDS011;5027;53.560;10.062;2023-12-29T13:08:50;6.03;;;2.50;;
9972;SDS011;5027;53.560;10.062;2023-12-29T13:11:18;4.97;;;2.33;;
9972;SDS011;5027;53.560;10.062;2023-12-29T13:13:48;3.97;;;2.27;;
9972;SDS011;5027;53.560;10.062;2023-12-29T13:16:14;6.53;;;2.93;;
9972;SDS011;5027;53.560;10.062;2023-12-29T13:18:41;7.10;;;2.40;;
9972;SDS011;5027;53.560;10.062;2023-12-29T13:21:08;7.17;;;2.13;;
9972;SDS011;5027;53.560;10.062;2023-12-29T13:23:36;6.37;;;2.70;;
9972;SDS011;5027;53.560;10.062;2023-12-29T13:26:04;7.10;;;2.17;;
9972;SDS011;5027;53.560;10.062;2023-12-29T13:28:34;6.70;;;2.20;;
9972;SDS011;5027;53.560;10.062;2023-12-29T13:31:05;5.67;;;2.53;;
9972;SDS011;5027;53.560;10.062;2023-12-29T13:36:18;3.77;;;2.10;;
9972;SDS011;5027;53.560;10.062;2023-12-29T13:38:52;7.43;;;2.60;;
9972;SDS011;5027;53.560;10.062;2023-12-29T13:41:24;4.93;;;2.47;;
9972;SDS011;5027;53.560;10.062;2023-12-29T13:43:54;9.27;;;3.00;;
9972;SDS011;5027;53.560;10.062;2023-12-29T13:46:21;5.63;;;2.07;;
9972;SDS011;5027;53.560;10.062;2023-12-29T13:48:49;9.13;;;2.63;;
9972;SDS011;5027;53.560;10.062;2023-12-29T13:51:21;6.37;;;2.30;;
9972;SDS011;5027;53.560;10.062;2023-12-29T13:54:01;9.80;;;2.30;;
9972;SDS011;5027;53.560;10.062;2023-12-29T13:56:29;3.80;;;2.00;;
9972;SDS011;5027;53.560;10.062;2023-12-29T13:58:56;6.33;;;2.47;;
9972;SDS011;5027;53.560;10.062;2023-12-29T14:01:23;4.83;;;1.90;;
9972;SDS011;5027;53.560;10.062;2023-12-29T14:03:50;8.60;;;2.80;;
9972;SDS011;5027;53.560;10.062;2023-12-29T14:06:35;6.30;;;2.57;;
9972;SDS011;5027;53.560;10.062;2023-12-29T14:09:15;11.27;;;3.37;;
9972;SDS011;5027;53.560;10.062;2023-12-29T14:11:48;9.20;;;3.00;;
9972;SDS011;5027;53.560;10.062;2023-12-29T14:14:21;9.63;;;2.90;;
9972;SDS011;5027;53.560;10.062;2023-12-29T14:16:49;7.73;;;2.57;;
9972;SDS011;5027;53.560;10.062;2023-12-29T14:19:16;13.50;;;3.57;;
9972;SDS011;5027;53.560;10.062;2023-12-29T14:21:43;10.77;;;3.27;;
9972;SDS011;5027;53.560;10.062;2023-12-29T14:24:11;10.47;;;2.70;;
9972;SDS011;5027;53.560;10.062;2023-12-29T14:26:40;12.93;;;3.30;;
9972;SDS011;5027;53.560;10.062;2023-12-29T14:29:08;6.43;;;2.63;;
9972;SDS011;5027;53.560;10.062;2023-12-29T14:31:36;11.83;;;3.23;;
9972;SDS011;5027;53.560;10.062;2023-12-29T14:34:05;10.30;;;3.27;;
9972;SDS011;5027;53.560;10.062;2023-12-29T14:36:33;11.20;;;3.00;;
9972;SDS011;5027;53.560;10.062;2023-12-29T14:39:00;9.93;;;3.27;;
9972;SDS011;5027;53.560;10.062;2023-12-29T14:41:27;8.73;;;3.40;;
9972;SDS011;5027;53.560;10.062;2023-12-29T14:43:54;10.53;;;3.00;;
9972;SDS011;5027;53.560;10.062;2023-12-29T14:46:21;13.53;;;3.17;;
9972;SDS011;5027;53.560;10.062;2023-12-29T14:48:49;12.00;;;2.80;;
9972;SDS011;5027;53.560;10.062;2023-12-29T14:51:17;11.87;;;4.83;;
9972;SDS011;5027;53.560;10.062;2023-12-29T14:53:44;11.27;;;3.37;;
9972;SDS011;5027;53.560;10.062;2023-12-29T14:56:13;8.73;;;3.20;;
9972;SDS011;5027;53.560;10.062;2023-12-29T14:58:40;7.57;;;2.93;;
9972;SDS011;5027;53.560;10.062;2023-12-29T15:01:07;11.73;;;3.07;;
9972;SDS011;5027;53.560;10.062;2023-12-29T15:03:35;10.97;;;3.23;;
9972;SDS011;5027;53.560;10.062;2023-12-29T15:06:02;10.73;;;3.27;;
9972;SDS011;5027;53.560;10.062;2023-12-29T15:08:30;13.77;;;3.23;;
9972;SDS011;5027;53.560;10.062;2023-12-29T15:11:03;11.67;;;3.57;;
9972;SDS011;5027;53.560;10.062;2023-12-29T15:13:32;13.67;;;4.10;;
9972;SDS011;5027;53.560;10.062;2023-12-29T15:15:59;7.37;;;2.70;;
9972;SDS011;5027;53.560;10.062;2023-12-29T15:18:28;9.80;;;3.40;;